sensor_id;sensor_type;location;lat;lon;timestamp;P1;durP1;ratioP1;P2;durP2;ratioP2
22995;SDS011;11664;49.774;8.650;2023-10-13T00:00:25;17.50;;;16.20;;
22995;SDS011;11664;49.774;8.650;2023-10-13T00:02:51;13.27;;;12.10;;
22995;SDS011;11664;49.774;8.650;2023-10-13T00:05:18;16.27;;;14.73;;
22995;SDS011;11664;49.774;8.650;2023-10-13T00:07:44;11.52;;;10.70;;
22995;SDS011;11664;49.774;8.650;2023-10-13T00:10:10;10.68;;;9.70;;
22995;SDS011;11664;49.774;8.650;2023-10-13T00:12:37;30.60;;;28.77;;
22995;SDS011;11664;49.774;8.650;2023-10-13T00:15:03;30.13;;;27.70;;
22995;SDS011;11664;49.774;8.650;2023-10-13T00:17:32;13.85;;;12.77;;
22995;SDS011;11664;49.774;8.650;2023-10-13T00:19:57;29.58;;;27.77;;
22995;SDS011;11664;49.774;8.650;2023-10-13T00:22:25;23.00;;;21.48;;
22995;SDS011;11664;49.774;8.650;2023-10-13T00:24:52;23.50;;;21.92;;
22995;SDS011;11664;49.774;8.650;2023-10-13T00:27:23;10.50;;;9.65;;
22995;SDS011;11664;49.774;8.650;2023-10-13T00:29:55;21.08;;;19.80;;
22995;SDS011;11664;49.774;8.650;2023-10-13T00:32:46;9.27;;;8.50;;
22995;SDS011;11664;49.774;8.650;2023-10-13T00:35:23;9.30;;;8.57;;
22995;SDS011;11664;49.774;8.650;2023-10-13T00:38:01;9.45;;;8.43;;
22995;SDS011;11664;49.774;8.650;2023-10-13T00:40:41;8.43;;;7.63;;
22995;SDS011;11664;49.774;8.650;2023-10-13T00:43:18;17.10;;;10.95;;
22995;SDS011;11664;49.774;8.650;2023-10-13T00:48:25;11.13;;;8.45;;
22995;SDS011;11664;49.774;8.650;2023-10-13T00:51:07;14.23;;;13.20;;
22995;SDS011;11664;49.774;8.650;2023-10-13T00:53:41;16.98;;;15.82;;
22995;SDS011;11664;49.774;8.650;2023-10-13T00:56:09;11.13;;;8.77;;
22995;SDS011;11664;49.774;8.650;2023-10-13T00:58:45;16.55;;;15.25;;
22995;SDS011;11664;49.774;8.650;2023-10-13T01:01:18;12.65;;;11.70;;
22995;SDS011;11664;49.774;8.650;2023-10-13T01:03:53;13.88;;;12.80;;
22995;SDS011;11664;49.774;8.650;2023-10-13T01:06:24;11.73;;;9.75;;
22995;SDS011;11664;49.774;8.650;2023-10-13T01:08:58;13.43;;;12.23;;
22995;SDS011;11664;49.774;8.650;2023-10-13T01:11:49;12.88;;;11.85;;
22995;SDS011;11664;49.774;8.650;2023-10-13T01:14:19;8.82;;;8.02;;
22995;SDS011;11664;49.774;8.650;2023-10-13T01:16:46;10.68;;;9.73;;
22995;SDS011;11664;49.774;8.650;2023-10-13T01:21:47;7.82;;;7.13;;
22995;SDS011;11664;49.774;8.650;2023-10-13T01:24:13;7.32;;;6.32;;
22995;SDS011;11664;49.774;8.650;2023-10-13T01:26:43;7.95;;;7.18;;
22995;SDS011;11664;49.774;8.650;2023-10-13T01:29:09;8.43;;;7.78;;
22995;SDS011;11664;49.774;8.650;2023-10-13T01:31:43;6.88;;;6.38;;
22995;SDS011;11664;49.774;8.650;2023-10-13T01:34:13;8.43;;;7.13;;
22995;SDS011;11664;49.774;8.650;2023-10-13T01:36:49;10.05;;;6.22;;
22995;SDS011;11664;49.774;8.650;2023-10-13T01:39:16;11.57;;;6.18;;
22995;SDS011;11664;49.774;8.650;2023-10-13T01:41:43;6.55;;;6.05;;
22995;SDS011;11664;49.774;8.650;2023-10-13T01:44:09;6.97;;;6.25;;
22995;SDS011;11664;49.774;8.650;2023-10-13T01:46:39;7.78;;;6.95;;
22995;SDS011;11664;49.774;8.650;2023-10-13T01:49:07;8.68;;;7.15;;
22995;SDS011;11664;49.774;8.650;2023-10-13T01:51:33;10.68;;;8.30;;
22995;SDS011;11664;49.774;8.650;2023-10-13T01:53:59;8.20;;;7.35;;
22995;SDS011;11664;49.774;8.650;2023-10-13T01:56:28;8.40;;;7.68;;
22995;SDS011;11664;49.774;8.650;2023-10-13T01:58:56;7.20;;;6.50;;
22995;SDS011;11664;49.774;8.650;2023-10-13T02:01:21;6.95;;;5.68;;
22995;SDS011;11664;49.774;8.650;2023-10-13T02:03:54;6.65;;;6.07;;
22995;SDS011;11664;49.774;8.650;2023-10-13T02:06:31;7.30;;;5.50;;
22995;SDS011;11664;49.774;8.650;2023-10-13T02:09:02;10.23;;;7.15;;
22995;SDS011;11664;49.774;8.650;2023-10-13T02:11:41;8.70;;;6.18;;
22995;SDS011;11664;49.774;8.650;2023-10-13T02:14:11;8.77;;;6.88;;
22995;SDS011;11664;49.774;8.650;2023-10-13T02:16:40;7.53;;;6.75;;
22995;SDS011;11664;49.774;8.650;2023-10-13T02:19:06;8.77;;;7.95;;
22995;SDS011;11664;49.774;8.650;2023-10-13T02:21:34;7.25;;;5.97;;
22995;SDS011;11664;49.774;8.650;2023-10-13T02:24:10;9.57;;;6.47;;
22995;SDS011;11664;49.774;8.650;2023-10-13T02:26:43;15.80;;;8.00;;
22995;SDS011;11664;49.774;8.650;2023-10-13T02:29:09;18.55;;;14.93;;
22995;SDS011;11664;49.774;8.650;2023-10-13T02:31:40;16.75;;;15.27;;
22995;SDS011;11664;49.774;8.650;2023-10-13T02:34:07;10.38;;;9.68;;
22995;SDS011;11664;49.774;8.650;2023-10-13T02:36:36;11.73;;;9.02;;
22995;SDS011;11664;49.774;8.650;2023-10-13T02:39:18;7.18;;;6.13;;
22995;SDS011;11664;49.774;8.650;2023-10-13T02:41:50;6.57;;;5.97;;
22995;SDS011;11664;49.774;8.650;2023-10-13T02:44:17;12.75;;;10.57;;
22995;SDS011;11664;49.774;8.650;2023-10-13T02:46:58;9.63;;;7.00;;
22995;SDS011;11664;49.774;8.650;2023-10-13T02:49:27;15.73;;;14.52;;
22995;SDS011;11664;49.774;8.650;2023-10-13T02:51:59;24.15;;;22.65;;
22995;SDS011;11664;49.774;8.650;2023-10-13T02:54:30;20.10;;;15.15;;
22995;SDS011;11664;49.774;8.650;2023-10-13T02:56:56;21.17;;;19.30;;
22995;SDS011;11664;49.774;8.650;2023-10-13T02:59:26;9.90;;;8.95;;
22995;SDS011;11664;49.774;8.650;2023-10-13T03:02:05;7.70;;;6.93;;
22995;SDS011;11664;49.774;8.650;2023-10-13T03:04:49;9.32;;;8.38;;
22995;SDS011;11664;49.774;8.650;2023-10-13T03:07:15;15.23;;;9.57;;
22995;SDS011;11664;49.774;8.650;2023-10-13T03:09:41;10.00;;;8.23;;
22995;SDS011;11664;49.774;8.650;2023-10-13T03:12:15;12.98;;;7.35;;
22995;SDS011;11664;49.774;8.650;2023-10-13T03:14:42;9.68;;;8.70;;
22995;SDS011;11664;49.774;8.650;2023-10-13T03:17:12;12.05;;;10.93;;
22995;SDS011;11664;49.774;8.650;2023-10-13T03:19:47;14.82;;;8.77;;
22995;SDS011;11664;49.774;8.650;2023-10-13T03:22:16;7.90;;;6.78;;
22995;SDS011;11664;49.774;8.650;2023-10-13T03:24:43;15.20;;;8.15;;
22995;SDS011;11664;49.774;8.650;2023-10-13T03:27:15;6.40;;;4.88;;
22995;SDS011;11664;49.774;8.650;2023-10-13T03:29:43;9.63;;;4.70;;
22995;SDS011;11664;49.774;8.650;2023-10-13T03:32:13;5.97;;;5.43;;
22995;SDS011;11664;49.774;8.650;2023-10-13T03:34:46;9.98;;;9.00;;
22995;SDS011;11664;49.774;8.650;2023-10-13T03:37:19;10.68;;;9.75;;
22995;SDS011;11664;49.774;8.650;2023-10-13T03:42:54;19.40;;;17.90;;
22995;SDS011;11664;49.774;8.650;2023-10-13T03:45:37;9.80;;;9.10;;
22995;SDS011;11664;49.774;8.650;2023-10-13T03:48:05;8.48;;;7.75;;
22995;SDS011;11664;49.774;8.650;2023-10-13T03:50:38;6.97;;;5.78;;
22995;SDS011;11664;49.774;8.650;2023-10-13T03:53:26;6.27;;;5.37;;
22995;SDS011;11664;49.774;8.650;2023-10-13T03:55:51;7.50;;;6.00;;
22995;SDS011;11664;49.774;8.650;2023-10-13T03:58:33;8.05;;;6.80;;
22995;SDS011;11664;49.774;8.650;2023-10-13T04:01:00;8.82;;;6.78;;
22995;SDS011;11664;49.774;8.650;2023-10-13T04:03:25;8.05;;;7.25;;
22995;SDS011;11664;49.774;8.650;2023-10-13T04:06:06;10.05;;;9.18;;
22995;SDS011;11664;49.774;8.650;2023-10-13T04:08:33;12.40;;;11.20;;
22995;SDS011;11664;49.774;8.650;2023-10-13T04:11:07;12.57;;;11.55;;
22995;SDS011;11664;49.774;8.650;2023-10-13T04:13:52;13.80;;;12.80;;
22995;SDS011;11664;49.774;8.650;2023-10-13T04:16:38;11.35;;;7.80;;
22995;SDS011;11664;49.774;8.650;2023-10-13T04:19:15;9.13;;;4.63;;
22995;SDS011;11664;49.774;8.650;2023-10-13T04:21:54;7.65;;;4.53;;
22995;SDS011;11664;49.774;8.650;2023-10-13T04:24:23;6.25;;;5.65;;
22995;SDS011;11664;49.774;8.650;2023-10-13T04:27:00;8.70;;;4.95;;
22995;SDS011;11664;49.774;8.650;2023-10-13T04:29:52;12.20;;;5.85;;
22995;SDS011;11664;49.774;8.650;2023-10-13T04:32:33;9.68;;;7.85;;
22995;SDS011;11664;49.774;8.650;2023-10-13T04:35:03;15.18;;;13.93;;
22995;SDS011;11664;49.774;8.650;2023-10-13T04:37:43;14.27;;;13.15;;
22995;SDS011;11664;49.774;8.650;2023-10-13T04:40:19;9.95;;;9.05;;
22995;SDS011;11664;49.774;8.650;2023-10-13T04:42:49;18.75;;;17.15;;
22995;SDS011;11664;49.774;8.650;2023-10-13T04:45:18;10.15;;;5.28;;
22995;SDS011;11664;49.774;8.650;2023-10-13T04:48:10;5.57;;;4.78;;
22995;SDS011;11664;49.774;8.650;2023-10-13T04:50:43;8.63;;;5.47;;
22995;SDS011;11664;49.774;8.650;2023-10-13T04:53:18;10.32;;;9.30;;
22995;SDS011;11664;49.774;8.650;2023-10-13T04:55:56;14.02;;;12.85;;
22995;SDS011;11664;49.774;8.650;2023-10-13T04:58:28;12.40;;;11.38;;
22995;SDS011;11664;49.774;8.650;2023-10-13T05:01:00;10.70;;;7.38;;
22995;SDS011;11664;49.774;8.650;2023-10-13T05:04:02;12.02;;;7.65;;
22995;SDS011;11664;49.774;8.650;2023-10-13T05:06:40;10.80;;;9.73;;
22995;SDS011;11664;49.774;8.650;2023-10-13T05:09:08;9.15;;;6.32;;
22995;SDS011;11664;49.774;8.650;2023-10-13T05:11:53;8.57;;;6.25;;
22995;SDS011;11664;49.774;8.650;2023-10-13T05:14:37;5.63;;;5.07;;
22995;SDS011;11664;49.774;8.650;2023-10-13T05:17:42;8.52;;;7.82;;
22995;SDS011;11664;49.774;8.650;2023-10-13T05:20:26;9.57;;;6.10;;
22995;SDS011;11664;49.774;8.650;2023-10-13T05:23:11;12.02;;;6.68;;
22995;SDS011;11664;49.774;8.650;2023-10-13T05:25:55;8.00;;;6.72;;
22995;SDS011;11664;49.774;8.650;2023-10-13T05:28:39;6.60;;;6.00;;
22995;SDS011;11664;49.774;8.650;2023-10-13T05:31:23;5.70;;;5.20;;
22995;SDS011;11664;49.774;8.650;2023-10-13T05:34:07;14.45;;;9.85;;
22995;SDS011;11664;49.774;8.650;2023-10-13T05:36:51;10.73;;;8.65;;
22995;SDS011;11664;49.774;8.650;2023-10-13T05:39:35;8.43;;;7.63;;
22995;SDS011;11664;49.774;8.650;2023-10-13T05:42:19;9.90;;;7.30;;
22995;SDS011;11664;49.774;8.650;2023-10-13T05:45:03;7.32;;;5.40;;
22995;SDS011;11664;49.774;8.650;2023-10-13T05:47:53;7.20;;;6.47;;
22995;SDS011;11664;49.774;8.650;2023-10-13T05:50:36;7.25;;;6.22;;
22995;SDS011;11664;49.774;8.650;2023-10-13T05:53:21;10.48;;;9.70;;
22995;SDS011;11664;49.774;8.650;2023-10-13T05:56:05;12.38;;;11.32;;
22995;SDS011;11664;49.774;8.650;2023-10-13T05:58:49;9.55;;;8.75;;
22995;SDS011;11664;49.774;8.650;2023-10-13T06:01:33;9.27;;;8.40;;
22995;SDS011;11664;49.774;8.650;2023-10-13T06:04:17;10.38;;;9.57;;
22995;SDS011;11664;49.774;8.650;2023-10-13T06:07:01;10.35;;;6.43;;
22995;SDS011;11664;49.774;8.650;2023-10-13T06:09:46;5.85;;;5.05;;
22995;SDS011;11664;49.774;8.650;2023-10-13T06:12:30;6.07;;;4.32;;
22995;SDS011;11664;49.774;8.650;2023-10-13T06:15:14;4.80;;;4.10;;
22995;SDS011;11664;49.774;8.650;2023-10-13T06:17:58;5.75;;;4.75;;
22995;SDS011;11664;49.774;8.650;2023-10-13T06:20:42;9.77;;;5.07;;
22995;SDS011;11664;49.774;8.650;2023-10-13T06:23:26;8.52;;;5.13;;
22995;SDS011;11664;49.774;8.650;2023-10-13T06:26:10;10.43;;;5.80;;
22995;SDS011;11664;49.774;8.650;2023-10-13T06:28:54;6.75;;;6.05;;
22995;SDS011;11664;49.774;8.650;2023-10-13T06:31:20;7.20;;;4.85;;
22995;SDS011;11664;49.774;8.650;2023-10-13T06:33:50;5.75;;;5.32;;
22995;SDS011;11664;49.774;8.650;2023-10-13T06:36:16;8.40;;;7.78;;
22995;SDS011;11664;49.774;8.650;2023-10-13T06:38:42;9.48;;;7.53;;
22995;SDS011;11664;49.774;8.650;2023-10-13T06:41:08;9.68;;;8.73;;
22995;SDS011;11664;49.774;8.650;2023-10-13T06:43:35;12.90;;;11.65;;
22995;SDS011;11664;49.774;8.650;2023-10-13T06:46:10;9.80;;;9.05;;
22995;SDS011;11664;49.774;8.650;2023-10-13T06:48:48;7.30;;;6.15;;
22995;SDS011;11664;49.774;8.650;2023-10-13T06:51:15;12.02;;;7.43;;
22995;SDS011;11664;49.774;8.650;2023-10-13T06:53:44;11.20;;;9.02;;
22995;SDS011;11664;49.774;8.650;2023-10-13T06:56:12;6.32;;;5.07;;
22995;SDS011;11664;49.774;8.650;2023-10-13T06:58:47;7.28;;;4.85;;
22995;SDS011;11664;49.774;8.650;2023-10-13T07:01:13;7.72;;;7.03;;
22995;SDS011;11664;49.774;8.650;2023-10-13T07:03:46;16.05;;;9.65;;
22995;SDS011;11664;49.774;8.650;2023-10-13T07:06:17;10.25;;;5.55;;
22995;SDS011;11664;49.774;8.650;2023-10-13T07:08:44;15.38;;;5.43;;
22995;SDS011;11664;49.774;8.650;2023-10-13T07:14:07;6.30;;;5.78;;
22995;SDS011;11664;49.774;8.650;2023-10-13T07:16:42;11.38;;;7.20;;
22995;SDS011;11664;49.774;8.650;2023-10-13T07:19:23;10.57;;;9.82;;
22995;SDS011;11664;49.774;8.650;2023-10-13T07:21:52;13.40;;;12.30;;
22995;SDS011;11664;49.774;8.650;2023-10-13T07:24:28;13.07;;;11.80;;
22995;SDS011;11664;49.774;8.650;2023-10-13T07:26:59;13.95;;;12.57;;
22995;SDS011;11664;49.774;8.650;2023-10-13T07:29:30;11.95;;;10.30;;
22995;SDS011;11664;49.774;8.650;2023-10-13T07:31:58;11.30;;;10.13;;
22995;SDS011;11664;49.774;8.650;2023-10-13T07:34:37;9.25;;;8.27;;
22995;SDS011;11664;49.774;8.650;2023-10-13T07:37:04;9.77;;;8.68;;
22995;SDS011;11664;49.774;8.650;2023-10-13T07:39:33;10.75;;;9.95;;
22995;SDS011;11664;49.774;8.650;2023-10-13T07:41:59;9.77;;;8.32;;
22995;SDS011;11664;49.774;8.650;2023-10-13T07:44:45;10.75;;;10.00;;
22995;SDS011;11664;49.774;8.650;2023-10-13T07:47:11;10.15;;;7.88;;
22995;SDS011;11664;49.774;8.650;2023-10-13T07:49:39;11.50;;;10.60;;
22995;SDS011;11664;49.774;8.650;2023-10-13T07:52:06;11.90;;;11.10;;
22995;SDS011;11664;49.774;8.650;2023-10-13T07:54:49;12.65;;;11.50;;
22995;SDS011;11664;49.774;8.650;2023-10-13T07:57:28;13.18;;;11.90;;
22995;SDS011;11664;49.774;8.650;2023-10-13T07:59:54;13.85;;;12.43;;
22995;SDS011;11664;49.774;8.650;2023-10-13T08:02:35;13.27;;;12.05;;
22995;SDS011;11664;49.774;8.650;2023-10-13T08:05:14;13.98;;;10.38;;
22995;SDS011;11664;49.774;8.650;2023-10-13T08:07:49;12.75;;;11.85;;
22995;SDS011;11664;49.774;8.650;2023-10-13T08:10:17;13.30;;;12.23;;
22995;SDS011;11664;49.774;8.650;2023-10-13T08:12:42;11.77;;;10.30;;
22995;SDS011;11664;49.774;8.650;2023-10-13T08:15:09;13.15;;;12.20;;
22995;SDS011;11664;49.774;8.650;2023-10-13T08:17:45;8.55;;;7.13;;
22995;SDS011;11664;49.774;8.650;2023-10-13T08:20:11;10.70;;;6.72;;
22995;SDS011;11664;49.774;8.650;2023-10-13T08:22:38;6.75;;;6.07;;
22995;SDS011;11664;49.774;8.650;2023-10-13T08:25:04;8.45;;;7.25;;
22995;SDS011;11664;49.774;8.650;2023-10-13T08:27:48;6.93;;;5.35;;
22995;SDS011;11664;49.774;8.650;2023-10-13T08:30:15;5.95;;;5.15;;
22995;SDS011;11664;49.774;8.650;2023-10-13T08:32:56;6.70;;;6.03;;
22995;SDS011;11664;49.774;8.650;2023-10-13T08:35:22;7.45;;;6.75;;
22995;SDS011;11664;49.774;8.650;2023-10-13T08:37:58;7.07;;;6.38;;
22995;SDS011;11664;49.774;8.650;2023-10-13T08:40:26;9.88;;;6.32;;
22995;SDS011;11664;49.774;8.650;2023-10-13T08:43:11;7.20;;;6.25;;
22995;SDS011;11664;49.774;8.650;2023-10-13T08:45:41;6.55;;;6.05;;
22995;SDS011;11664;49.774;8.650;2023-10-13T08:48:08;8.05;;;6.00;;
22995;SDS011;11664;49.774;8.650;2023-10-13T08:50:51;6.07;;;5.27;;
22995;SDS011;11664;49.774;8.650;2023-10-13T08:56:03;6.28;;;5.68;;
22995;SDS011;11664;49.774;8.650;2023-10-13T08:58:32;11.57;;;7.07;;
22995;SDS011;11664;49.774;8.650;2023-10-13T09:01:22;9.45;;;8.00;;
22995;SDS011;11664;49.774;8.650;2023-10-13T09:04:08;11.55;;;10.45;;
22995;SDS011;11664;49.774;8.650;2023-10-13T09:06:44;12.15;;;11.18;;
22995;SDS011;11664;49.774;8.650;2023-10-13T09:09:30;14.65;;;13.40;;
22995;SDS011;11664;49.774;8.650;2023-10-13T09:12:10;15.45;;;14.30;;
22995;SDS011;11664;49.774;8.650;2023-10-13T09:14:59;23.92;;;22.05;;
22995;SDS011;11664;49.774;8.650;2023-10-13T09:17:41;28.63;;;26.73;;
22995;SDS011;11664;49.774;8.650;2023-10-13T09:20:13;34.25;;;31.95;;
22995;SDS011;11664;49.774;8.650;2023-10-13T09:22:49;36.15;;;33.97;;
22995;SDS011;11664;49.774;8.650;2023-10-13T09:25:30;27.38;;;25.63;;
22995;SDS011;11664;49.774;8.650;2023-10-13T09:27:58;36.25;;;34.03;;
22995;SDS011;11664;49.774;8.650;2023-10-13T09:30:25;50.42;;;47.40;;
22995;SDS011;11664;49.774;8.650;2023-10-13T09:33:01;29.35;;;27.42;;
22995;SDS011;11664;49.774;8.650;2023-10-13T09:35:30;35.92;;;33.53;;
22995;SDS011;11664;49.774;8.650;2023-10-13T09:37:59;37.15;;;35.05;;
22995;SDS011;11664;49.774;8.650;2023-10-13T09:40:27;51.60;;;48.55;;
22995;SDS011;11664;49.774;8.650;2023-10-13T09:42:54;47.83;;;44.97;;
22995;SDS011;11664;49.774;8.650;2023-10-13T09:45:28;49.65;;;46.53;;
22995;SDS011;11664;49.774;8.650;2023-10-13T09:47:59;47.42;;;44.78;;
22995;SDS011;11664;49.774;8.650;2023-10-13T09:50:33;64.88;;;61.15;;
22995;SDS011;11664;49.774;8.650;2023-10-13T09:53:05;72.30;;;68.32;;
22995;SDS011;11664;49.774;8.650;2023-10-13T09:55:35;46.35;;;43.70;;
22995;SDS011;11664;49.774;8.650;2023-10-13T09:58:06;34.47;;;32.38;;
22995;SDS011;11664;49.774;8.650;2023-10-13T10:00:46;26.17;;;24.58;;
22995;SDS011;11664;49.774;8.650;2023-10-13T10:03:22;21.13;;;19.83;;
22995;SDS011;11664;49.774;8.650;2023-10-13T10:05:58;15.70;;;14.60;;
22995;SDS011;11664;49.774;8.650;2023-10-13T10:08:33;11.13;;;10.38;;
22995;SDS011;11664;49.774;8.650;2023-10-13T10:13:47;11.80;;;10.70;;
22995;SDS011;11664;49.774;8.650;2023-10-13T10:16:26;11.10;;;10.18;;
22995;SDS011;11664;49.774;8.650;2023-10-13T10:19:15;7.78;;;6.88;;
22995;SDS011;11664;49.774;8.650;2023-10-13T10:21:40;8.15;;;6.88;;
22995;SDS011;11664;49.774;8.650;2023-10-13T10:24:16;6.40;;;5.80;;
22995;SDS011;11664;49.774;8.650;2023-10-13T10:26:51;7.82;;;5.32;;
22995;SDS011;11664;49.774;8.650;2023-10-13T10:29:17;10.38;;;6.28;;
22995;SDS011;11664;49.774;8.650;2023-10-13T10:31:42;7.32;;;6.72;;
22995;SDS011;11664;49.774;8.650;2023-10-13T10:34:16;9.40;;;6.40;;
22995;SDS011;11664;49.774;8.650;2023-10-13T10:36:55;7.25;;;5.40;;
22995;SDS011;11664;49.774;8.650;2023-10-13T10:39:32;6.05;;;5.47;;
22995;SDS011;11664;49.774;8.650;2023-10-13T10:42:07;6.40;;;5.50;;
22995;SDS011;11664;49.774;8.650;2023-10-13T10:44:40;9.38;;;5.25;;
22995;SDS011;11664;49.774;8.650;2023-10-13T10:47:11;15.40;;;6.75;;
22995;SDS011;11664;49.774;8.650;2023-10-13T10:49:59;6.20;;;5.70;;
22995;SDS011;11664;49.774;8.650;2023-10-13T10:52:32;7.45;;;5.57;;
22995;SDS011;11664;49.774;8.650;2023-10-13T10:55:02;8.48;;;7.60;;
22995;SDS011;11664;49.774;8.650;2023-10-13T10:57:38;7.57;;;6.88;;
22995;SDS011;11664;49.774;8.650;2023-10-13T11:00:29;11.45;;;5.97;;
22995;SDS011;11664;49.774;8.650;2023-10-13T11:03:07;11.90;;;7.30;;
22995;SDS011;11664;49.774;8.650;2023-10-13T11:05:42;6.72;;;6.13;;
22995;SDS011;11664;49.774;8.650;2023-10-13T11:08:21;8.32;;;7.57;;
22995;SDS011;11664;49.774;8.650;2023-10-13T11:11:02;5.55;;;5.10;;
22995;SDS011;11664;49.774;8.650;2023-10-13T11:13:46;7.85;;;6.57;;
22995;SDS011;11664;49.774;8.650;2023-10-13T11:16:22;13.48;;;12.48;;
22995;SDS011;11664;49.774;8.650;2023-10-13T11:18:59;8.40;;;7.65;;
22995;SDS011;11664;49.774;8.650;2023-10-13T11:21:28;11.25;;;10.35;;
22995;SDS011;11664;49.774;8.650;2023-10-13T11:23:56;9.65;;;8.75;;
22995;SDS011;11664;49.774;8.650;2023-10-13T11:26:32;9.50;;;8.85;;
22995;SDS011;11664;49.774;8.650;2023-10-13T11:28:58;8.50;;;7.88;;
22995;SDS011;11664;49.774;8.650;2023-10-13T11:31:24;10.60;;;9.68;;
22995;SDS011;11664;49.774;8.650;2023-10-13T11:33:49;10.10;;;9.10;;
22995;SDS011;11664;49.774;8.650;2023-10-13T11:36:17;9.23;;;8.52;;
22995;SDS011;11664;49.774;8.650;2023-10-13T11:38:47;10.52;;;9.63;;
22995;SDS011;11664;49.774;8.650;2023-10-13T11:41:12;15.55;;;14.20;;
22995;SDS011;11664;49.774;8.650;2023-10-13T11:43:52;9.30;;;8.57;;
22995;SDS011;11664;49.774;8.650;2023-10-13T11:46:30;9.15;;;8.00;;
22995;SDS011;11664;49.774;8.650;2023-10-13T11:49:02;11.15;;;9.85;;
22995;SDS011;11664;49.774;8.650;2023-10-13T11:51:34;11.73;;;10.70;;
22995;SDS011;11664;49.774;8.650;2023-10-13T11:54:03;14.43;;;13.25;;
22995;SDS011;11664;49.774;8.650;2023-10-13T11:56:28;15.82;;;14.52;;
22995;SDS011;11664;49.774;8.650;2023-10-13T11:58:54;15.00;;;10.25;;
22995;SDS011;11664;49.774;8.650;2023-10-13T12:01:26;7.78;;;7.07;;
22995;SDS011;11664;49.774;8.650;2023-10-13T12:04:12;10.43;;;6.05;;
22995;SDS011;11664;49.774;8.650;2023-10-13T12:06:56;5.72;;;4.63;;
22995;SDS011;11664;49.774;8.650;2023-10-13T12:09:42;7.38;;;5.55;;
22995;SDS011;11664;49.774;8.650;2023-10-13T12:12:21;11.82;;;7.82;;
22995;SDS011;11664;49.774;8.650;2023-10-13T12:14:50;8.35;;;7.65;;
22995;SDS011;11664;49.774;8.650;2023-10-13T12:17:28;6.93;;;6.13;;
22995;SDS011;11664;49.774;8.650;2023-10-13T12:20:01;11.93;;;6.47;;
22995;SDS011;11664;49.774;8.650;2023-10-13T12:22:31;6.72;;;5.63;;
22995;SDS011;11664;49.774;8.650;2023-10-13T12:25:16;6.05;;;5.53;;
22995;SDS011;11664;49.774;8.650;2023-10-13T12:27:59;7.43;;;6.72;;
22995;SDS011;11664;49.774;8.650;2023-10-13T12:30:38;9.75;;;6.47;;
22995;SDS011;11664;49.774;8.650;2023-10-13T12:33:18;7.07;;;5.22;;
22995;SDS011;11664;49.774;8.650;2023-10-13T12:35:57;5.85;;;5.28;;
22995;SDS011;11664;49.774;8.650;2023-10-13T12:38:34;6.63;;;5.45;;
22995;SDS011;11664;49.774;8.650;2023-10-13T12:41:15;8.40;;;7.05;;
22995;SDS011;11664;49.774;8.650;2023-10-13T12:44:01;12.48;;;6.95;;
22995;SDS011;11664;49.774;8.650;2023-10-13T12:46:45;8.43;;;6.13;;
22995;SDS011;11664;49.774;8.650;2023-10-13T12:49:29;6.43;;;5.97;;
22995;SDS011;11664;49.774;8.650;2023-10-13T12:52:05;5.25;;;4.82;;
22995;SDS011;11664;49.774;8.650;2023-10-13T12:54:50;8.73;;;7.47;;
22995;SDS011;11664;49.774;8.650;2023-10-13T12:57:39;7.05;;;5.85;;
22995;SDS011;11664;49.774;8.650;2023-10-13T13:00:08;6.00;;;5.10;;
22995;SDS011;11664;49.774;8.650;2023-10-13T13:02:42;17.92;;;7.22;;
22995;SDS011;11664;49.774;8.650;2023-10-13T13:05:08;6.13;;;5.53;;
22995;SDS011;11664;49.774;8.650;2023-10-13T13:07:37;10.70;;;6.22;;
22995;SDS011;11664;49.774;8.650;2023-10-13T13:10:12;8.40;;;7.80;;
22995;SDS011;11664;49.774;8.650;2023-10-13T13:12:39;8.65;;;7.72;;
22995;SDS011;11664;49.774;8.650;2023-10-13T13:15:05;9.77;;;8.55;;
22995;SDS011;11664;49.774;8.650;2023-10-13T13:17:37;7.78;;;6.90;;
22995;SDS011;11664;49.774;8.650;2023-10-13T13:20:04;8.18;;;7.47;;
22995;SDS011;11664;49.774;8.650;2023-10-13T13:22:50;9.80;;;9.05;;
22995;SDS011;11664;49.774;8.650;2023-10-13T13:25:16;14.07;;;12.85;;
22995;SDS011;11664;49.774;8.650;2023-10-13T13:27:43;16.98;;;15.60;;
22995;SDS011;11664;49.774;8.650;2023-10-13T13:30:09;7.57;;;7.03;;
22995;SDS011;11664;49.774;8.650;2023-10-13T13:32:37;10.18;;;8.32;;
22995;SDS011;11664;49.774;8.650;2023-10-13T13:35:05;7.93;;;7.20;;
22995;SDS011;11664;49.774;8.650;2023-10-13T13:37:33;6.43;;;5.93;;
22995;SDS011;11664;49.774;8.650;2023-10-13T13:39:59;7.03;;;6.53;;
22995;SDS011;11664;49.774;8.650;2023-10-13T13:42:40;10.50;;;9.00;;
22995;SDS011;11664;49.774;8.650;2023-10-13T13:45:14;9.63;;;8.93;;
22995;SDS011;11664;49.774;8.650;2023-10-13T13:47:57;9.93;;;9.13;;
22995;SDS011;11664;49.774;8.650;2023-10-13T13:50:23;9.70;;;8.95;;
22995;SDS011;11664;49.774;8.650;2023-10-13T13:52:54;8.57;;;7.97;;
22995;SDS011;11664;49.774;8.650;2023-10-13T13:55:21;8.75;;;7.95;;
22995;SDS011;11664;49.774;8.650;2023-10-13T13:57:48;10.45;;;7.90;;
22995;SDS011;11664;49.774;8.650;2023-10-13T14:00:15;8.55;;;7.85;;
22995;SDS011;11664;49.774;8.650;2023-10-13T14:03:06;7.70;;;7.10;;
22995;SDS011;11664;49.774;8.650;2023-10-13T14:05:44;7.47;;;6.88;;
22995;SDS011;11664;49.774;8.650;2023-10-13T14:08:10;16.35;;;7.50;;
22995;SDS011;11664;49.774;8.650;2023-10-13T14:10:40;7.88;;;7.18;;
22995;SDS011;11664;49.774;8.650;2023-10-13T14:13:24;10.73;;;9.68;;
22995;SDS011;11664;49.774;8.650;2023-10-13T14:16:09;9.63;;;8.77;;
22995;SDS011;11664;49.774;8.650;2023-10-13T14:18:45;11.25;;;10.45;;
22995;SDS011;11664;49.774;8.650;2023-10-13T14:21:11;9.57;;;7.07;;
22995;SDS011;11664;49.774;8.650;2023-10-13T14:23:42;10.45;;;5.43;;
22995;SDS011;11664;49.774;8.650;2023-10-13T14:26:11;6.57;;;5.45;;
22995;SDS011;11664;49.774;8.650;2023-10-13T14:28:37;6.32;;;4.80;;
22995;SDS011;11664;49.774;8.650;2023-10-13T14:31:11;6.47;;;5.60;;
22995;SDS011;11664;49.774;8.650;2023-10-13T14:33:39;8.13;;;7.30;;
22995;SDS011;11664;49.774;8.650;2023-10-13T14:36:04;8.48;;;6.32;;
22995;SDS011;11664;49.774;8.650;2023-10-13T14:38:30;5.93;;;5.43;;
22995;SDS011;11664;49.774;8.650;2023-10-13T14:40:58;8.38;;;7.70;;
22995;SDS011;11664;49.774;8.650;2023-10-13T14:43:24;6.70;;;6.13;;
22995;SDS011;11664;49.774;8.650;2023-10-13T14:45:53;7.50;;;5.65;;
22995;SDS011;11664;49.774;8.650;2023-10-13T14:48:19;6.78;;;6.18;;
22995;SDS011;11664;49.774;8.650;2023-10-13T14:50:44;6.68;;;6.05;;
22995;SDS011;11664;49.774;8.650;2023-10-13T14:53:10;11.55;;;6.22;;
22995;SDS011;11664;49.774;8.650;2023-10-13T14:55:36;5.82;;;4.88;;
22995;SDS011;11664;49.774;8.650;2023-10-13T14:58:04;6.93;;;5.03;;
22995;SDS011;11664;49.774;8.650;2023-10-13T15:00:32;6.05;;;4.93;;
22995;SDS011;11664;49.774;8.650;2023-10-13T15:02:59;5.20;;;4.70;;
22995;SDS011;11664;49.774;8.650;2023-10-13T15:05:31;7.07;;;5.70;;
22995;SDS011;11664;49.774;8.650;2023-10-13T15:07:58;6.45;;;5.35;;
22995;SDS011;11664;49.774;8.650;2023-10-13T15:10:25;13.35;;;5.25;;
22995;SDS011;11664;49.774;8.650;2023-10-13T15:12:51;6.35;;;4.95;;
22995;SDS011;11664;49.774;8.650;2023-10-13T15:15:16;7.13;;;5.68;;
22995;SDS011;11664;49.774;8.650;2023-10-13T15:17:44;8.10;;;5.22;;
22995;SDS011;11664;49.774;8.650;2023-10-13T15:20:13;5.15;;;4.50;;
22995;SDS011;11664;49.774;8.650;2023-10-13T15:22:42;5.47;;;4.72;;
22995;SDS011;11664;49.774;8.650;2023-10-13T15:25:08;5.85;;;5.30;;
22995;SDS011;11664;49.774;8.650;2023-10-13T15:27:42;7.70;;;5.28;;
22995;SDS011;11664;49.774;8.650;2023-10-13T15:30:10;7.55;;;4.97;;
22995;SDS011;11664;49.774;8.650;2023-10-13T15:32:45;7.70;;;5.70;;